sensor_id;sensor_type;location;lat;lon;timestamp;P1;durP1;ratioP1;P2;durP2;ratioP2
10144;SDS011;5113;41.822;23.564;2023-02-28T00:02:24;6.87;;;4.40;;
10144;SDS011;5113;41.822;23.564;2023-02-28T00:05:32;14.50;;;6.60;;
10144;SDS011;5113;41.822;23.564;2023-02-28T00:08:39;12.20;;;5.83;;
10144;SDS011;5113;41.822;23.564;2023-02-28T00:11:45;14.13;;;5.67;;
10144;SDS011;5113;41.822;23.564;2023-02-28T00:14:54;10.87;;;5.63;;
10144;SDS011;5113;41.822;23.564;2023-02-28T00:18:00;10.40;;;4.50;;
10144;SDS011;5113;41.822;23.564;2023-02-28T00:21:09;12.47;;;8.07;;
10144;SDS011;5113;41.822;23.564;2023-02-28T00:24:15;11.23;;;7.17;;
10144;SDS011;5113;41.822;23.564;2023-02-28T00:27:21;9.10;;;5.83;;
10144;SDS011;5113;41.822;23.564;2023-02-28T00:30:28;12.20;;;6.97;;
10144;SDS011;5113;41.822;23.564;2023-02-28T00:33:34;13.60;;;6.67;;
10144;SDS011;5113;41.822;23.564;2023-02-28T00:36:42;11.67;;;5.17;;
10144;SDS011;5113;41.822;23.564;2023-02-28T00:39:50;10.20;;;5.80;;
10144;SDS011;5113;41.822;23.564;2023-02-28T00:42:57;13.07;;;5.00;;
10144;SDS011;5113;41.822;23.564;2023-02-28T00:46:03;11.60;;;6.00;;
10144;SDS011;5113;41.822;23.564;2023-02-28T00:49:09;12.13;;;5.93;;
10144;SDS011;5113;41.822;23.564;2023-02-28T00:52:17;13.87;;;5.97;;
10144;SDS011;5113;41.822;23.564;2023-02-28T00:55:23;13.37;;;6.17;;
10144;SDS011;5113;41.822;23.564;2023-02-28T00:58:29;9.10;;;5.30;;
10144;SDS011;5113;41.822;23.564;2023-02-28T01:01:35;9.17;;;6.13;;
10144;SDS011;5113;41.822;23.564;2023-02-28T01:04:41;9.17;;;4.97;;
10144;SDS011;5113;41.822;23.564;2023-02-28T01:07:49;8.93;;;5.30;;
10144;SDS011;5113;41.822;23.564;2023-02-28T01:10:55;10.27;;;5.50;;
10144;SDS011;5113;41.822;23.564;2023-02-28T01:14:02;11.70;;;5.67;;
10144;SDS011;5113;41.822;23.564;2023-02-28T01:17:09;15.43;;;5.60;;
10144;SDS011;5113;41.822;23.564;2023-02-28T01:20:15;11.43;;;6.33;;
10144;SDS011;5113;41.822;23.564;2023-02-28T01:23:23;13.33;;;5.43;;
10144;SDS011;5113;41.822;23.564;2023-02-28T01:26:30;7.40;;;3.77;;
10144;SDS011;5113;41.822;23.564;2023-02-28T01:29:36;4.27;;;3.70;;
10144;SDS011;5113;41.822;23.564;2023-02-28T01:32:43;3.43;;;3.13;;
10144;SDS011;5113;41.822;23.564;2023-02-28T01:35:49;11.50;;;3.10;;
10144;SDS011;5113;41.822;23.564;2023-02-28T01:39:04;4.10;;;2.83;;
10144;SDS011;5113;41.822;23.564;2023-02-28T01:42:10;2.37;;;2.17;;
10144;SDS011;5113;41.822;23.564;2023-02-28T01:45:18;6.53;;;3.50;;
10144;SDS011;5113;41.822;23.564;2023-02-28T01:48:29;6.97;;;3.13;;
10144;SDS011;5113;41.822;23.564;2023-02-28T01:51:41;3.10;;;2.73;;
10144;SDS011;5113;41.822;23.564;2023-02-28T01:54:53;5.33;;;3.47;;
10144;SDS011;5113;41.822;23.564;2023-02-28T01:58:02;3.57;;;3.27;;
10144;SDS011;5113;41.822;23.564;2023-02-28T02:01:11;6.73;;;3.83;;
10144;SDS011;5113;41.822;23.564;2023-02-28T02:04:27;2.60;;;2.37;;
10144;SDS011;5113;41.822;23.564;2023-02-28T02:07:38;5.80;;;2.67;;
10144;SDS011;5113;41.822;23.564;2023-02-28T02:10:48;5.23;;;2.67;;
10144;SDS011;5113;41.822;23.564;2023-02-28T02:14:10;5.47;;;4.73;;
10144;SDS011;5113;41.822;23.564;2023-02-28T02:17:38;5.10;;;3.17;;
10144;SDS011;5113;41.822;23.564;2023-02-28T02:21:02;11.90;;;3.97;;
10144;SDS011;5113;41.822;23.564;2023-02-28T02:28:25;10.27;;;5.93;;
10144;SDS011;5113;41.822;23.564;2023-02-28T02:31:54;10.27;;;6.20;;
10144;SDS011;5113;41.822;23.564;2023-02-28T02:35:16;8.63;;;4.57;;
10144;SDS011;5113;41.822;23.564;2023-02-28T02:38:32;7.27;;;3.80;;
10144;SDS011;5113;41.822;23.564;2023-02-28T02:41:41;5.83;;;3.00;;
10144;SDS011;5113;41.822;23.564;2023-02-28T02:44:55;3.20;;;2.93;;
10144;SDS011;5113;41.822;23.564;2023-02-28T02:48:07;3.50;;;3.17;;
10144;SDS011;5113;41.822;23.564;2023-02-28T02:51:17;8.10;;;4.57;;
10144;SDS011;5113;41.822;23.564;2023-02-28T02:54:27;5.77;;;4.53;;
10144;SDS011;5113;41.822;23.564;2023-02-28T02:57:38;12.73;;;6.70;;
10144;SDS011;5113;41.822;23.564;2023-02-28T03:00:49;6.53;;;4.10;;
10144;SDS011;5113;41.822;23.564;2023-02-28T03:03:59;6.53;;;4.37;;
10144;SDS011;5113;41.822;23.564;2023-02-28T03:07:09;6.27;;;4.03;;
10144;SDS011;5113;41.822;23.564;2023-02-28T03:10:26;4.03;;;2.70;;
10144;SDS011;5113;41.822;23.564;2023-02-28T03:13:44;6.93;;;4.03;;
10144;SDS011;5113;41.822;23.564;2023-02-28T03:17:06;3.33;;;2.80;;
10144;SDS011;5113;41.822;23.564;2023-02-28T03:20:27;3.60;;;2.97;;
10144;SDS011;5113;41.822;23.564;2023-02-28T03:23:48;3.93;;;3.60;;
10144;SDS011;5113;41.822;23.564;2023-02-28T03:27:03;8.67;;;3.30;;
10144;SDS011;5113;41.822;23.564;2023-02-28T03:30:14;14.73;;;9.27;;
10144;SDS011;5113;41.822;23.564;2023-02-28T03:33:30;6.97;;;5.53;;
10144;SDS011;5113;41.822;23.564;2023-02-28T03:36:41;13.00;;;5.73;;
10144;SDS011;5113;41.822;23.564;2023-02-28T03:39:55;8.47;;;4.90;;
10144;SDS011;5113;41.822;23.564;2023-02-28T03:43:07;10.57;;;6.20;;
10144;SDS011;5113;41.822;23.564;2023-02-28T03:46:18;9.93;;;4.37;;
10144;SDS011;5113;41.822;23.564;2023-02-28T03:49:30;7.07;;;4.93;;
10144;SDS011;5113;41.822;23.564;2023-02-28T03:52:41;7.63;;;5.40;;
10144;SDS011;5113;41.822;23.564;2023-02-28T03:55:55;14.27;;;8.97;;
10144;SDS011;5113;41.822;23.564;2023-02-28T03:59:05;12.90;;;8.97;;
10144;SDS011;5113;41.822;23.564;2023-02-28T04:02:16;9.80;;;7.40;;
10144;SDS011;5113;41.822;23.564;2023-02-28T04:05:22;15.03;;;7.93;;
10144;SDS011;5113;41.822;23.564;2023-02-28T04:08:29;15.20;;;8.07;;
10144;SDS011;5113;41.822;23.564;2023-02-28T04:11:37;42.73;;;16.93;;
10144;SDS011;5113;41.822;23.564;2023-02-28T04:14:45;21.97;;;12.83;;
10144;SDS011;5113;41.822;23.564;2023-02-28T04:17:51;19.63;;;11.63;;
10144;SDS011;5113;41.822;23.564;2023-02-28T04:20:59;20.47;;;12.70;;
10144;SDS011;5113;41.822;23.564;2023-02-28T04:24:06;19.10;;;11.60;;
10144;SDS011;5113;41.822;23.564;2023-02-28T04:27:19;28.73;;;21.20;;
10144;SDS011;5113;41.822;23.564;2023-02-28T04:30:26;16.60;;;9.60;;
10144;SDS011;5113;41.822;23.564;2023-02-28T04:33:34;12.67;;;9.40;;
10144;SDS011;5113;41.822;23.564;2023-02-28T04:36:40;11.37;;;6.00;;
10144;SDS011;5113;41.822;23.564;2023-02-28T04:39:47;10.30;;;6.87;;
10144;SDS011;5113;41.822;23.564;2023-02-28T04:42:54;9.17;;;4.97;;
10144;SDS011;5113;41.822;23.564;2023-02-28T04:46:02;11.90;;;7.03;;
10144;SDS011;5113;41.822;23.564;2023-02-28T04:49:10;12.63;;;8.40;;
10144;SDS011;5113;41.822;23.564;2023-02-28T04:52:17;8.27;;;4.80;;
10144;SDS011;5113;41.822;23.564;2023-02-28T04:55:24;7.77;;;5.23;;
10144;SDS011;5113;41.822;23.564;2023-02-28T04:58:32;30.93;;;14.27;;
10144;SDS011;5113;41.822;23.564;2023-02-28T05:01:38;25.20;;;13.23;;
10144;SDS011;5113;41.822;23.564;2023-02-28T05:04:45;23.47;;;14.17;;
10144;SDS011;5113;41.822;23.564;2023-02-28T05:07:51;16.03;;;11.97;;
10144;SDS011;5113;41.822;23.564;2023-02-28T05:10:58;16.90;;;10.63;;
10144;SDS011;5113;41.822;23.564;2023-02-28T05:14:08;23.60;;;12.73;;
10144;SDS011;5113;41.822;23.564;2023-02-28T05:17:16;16.83;;;10.73;;
10144;SDS011;5113;41.822;23.564;2023-02-28T05:20:23;56.20;;;28.37;;
10144;SDS011;5113;41.822;23.564;2023-02-28T05:23:30;55.70;;;30.13;;
10144;SDS011;5113;41.822;23.564;2023-02-28T05:26:36;18.53;;;13.00;;
10144;SDS011;5113;41.822;23.564;2023-02-28T05:29:46;22.30;;;13.63;;
10144;SDS011;5113;41.822;23.564;2023-02-28T05:32:52;22.00;;;11.83;;
10144;SDS011;5113;41.822;23.564;2023-02-28T05:35:59;22.30;;;13.80;;
10144;SDS011;5113;41.822;23.564;2023-02-28T05:39:06;36.13;;;20.43;;
10144;SDS011;5113;41.822;23.564;2023-02-28T05:42:17;34.40;;;19.90;;
10144;SDS011;5113;41.822;23.564;2023-02-28T05:45:25;28.93;;;18.53;;
10144;SDS011;5113;41.822;23.564;2023-02-28T05:48:31;32.03;;;17.87;;
10144;SDS011;5113;41.822;23.564;2023-02-28T05:51:38;28.73;;;15.17;;
10144;SDS011;5113;41.822;23.564;2023-02-28T05:54:46;22.07;;;8.47;;
10144;SDS011;5113;41.822;23.564;2023-02-28T05:57:52;13.50;;;7.17;;
10144;SDS011;5113;41.822;23.564;2023-02-28T06:01:00;12.40;;;7.10;;
10144;SDS011;5113;41.822;23.564;2023-02-28T06:04:24;21.70;;;13.13;;
10144;SDS011;5113;41.822;23.564;2023-02-28T06:07:35;52.33;;;26.23;;
10144;SDS011;5113;41.822;23.564;2023-02-28T06:10:41;10.90;;;8.37;;
10144;SDS011;5113;41.822;23.564;2023-02-28T06:13:48;12.23;;;8.60;;
10144;SDS011;5113;41.822;23.564;2023-02-28T06:16:56;7.47;;;6.77;;
10144;SDS011;5113;41.822;23.564;2023-02-28T06:20:03;9.87;;;7.47;;
10144;SDS011;5113;41.822;23.564;2023-02-28T06:23:10;16.33;;;11.70;;
10144;SDS011;5113;41.822;23.564;2023-02-28T06:26:16;24.77;;;12.80;;
10144;SDS011;5113;41.822;23.564;2023-02-28T06:29:23;10.80;;;8.50;;
10144;SDS011;5113;41.822;23.564;2023-02-28T06:32:31;11.83;;;7.07;;
10144;SDS011;5113;41.822;23.564;2023-02-28T06:35:37;10.30;;;5.80;;
10144;SDS011;5113;41.822;23.564;2023-02-28T06:38:44;9.17;;;6.13;;
10144;SDS011;5113;41.822;23.564;2023-02-28T06:41:52;7.87;;;6.20;;
10144;SDS011;5113;41.822;23.564;2023-02-28T06:45:00;15.77;;;9.43;;
10144;SDS011;5113;41.822;23.564;2023-02-28T06:48:09;22.17;;;13.60;;
10144;SDS011;5113;41.822;23.564;2023-02-28T06:51:17;31.37;;;17.93;;
10144;SDS011;5113;41.822;23.564;2023-02-28T06:54:24;13.20;;;9.47;;
10144;SDS011;5113;41.822;23.564;2023-02-28T06:57:32;24.67;;;14.37;;
10144;SDS011;5113;41.822;23.564;2023-02-28T07:00:40;20.87;;;13.27;;
10144;SDS011;5113;41.822;23.564;2023-02-28T07:03:48;23.30;;;12.70;;
10144;SDS011;5113;41.822;23.564;2023-02-28T07:06:57;22.00;;;14.67;;
10144;SDS011;5113;41.822;23.564;2023-02-28T07:10:03;16.73;;;9.27;;
10144;SDS011;5113;41.822;23.564;2023-02-28T07:13:10;17.07;;;8.53;;
10144;SDS011;5113;41.822;23.564;2023-02-28T07:16:17;11.93;;;9.40;;
10144;SDS011;5113;41.822;23.564;2023-02-28T07:19:26;34.83;;;17.73;;
10144;SDS011;5113;41.822;23.564;2023-02-28T07:22:32;21.07;;;13.37;;
10144;SDS011;5113;41.822;23.564;2023-02-28T07:25:39;18.70;;;9.20;;
10144;SDS011;5113;41.822;23.564;2023-02-28T07:28:46;13.07;;;9.70;;
10144;SDS011;5113;41.822;23.564;2023-02-28T07:31:53;16.27;;;9.07;;
10144;SDS011;5113;41.822;23.564;2023-02-28T07:35:01;15.00;;;10.63;;
10144;SDS011;5113;41.822;23.564;2023-02-28T07:38:08;13.53;;;8.57;;
10144;SDS011;5113;41.822;23.564;2023-02-28T07:41:14;10.43;;;7.27;;
10144;SDS011;5113;41.822;23.564;2023-02-28T07:44:21;11.57;;;6.10;;
10144;SDS011;5113;41.822;23.564;2023-02-28T07:47:28;20.30;;;7.40;;
10144;SDS011;5113;41.822;23.564;2023-02-28T07:50:36;23.13;;;10.33;;
10144;SDS011;5113;41.822;23.564;2023-02-28T07:53:42;14.97;;;9.47;;
10144;SDS011;5113;41.822;23.564;2023-02-28T07:56:48;15.57;;;7.83;;
10144;SDS011;5113;41.822;23.564;2023-02-28T07:59:55;16.10;;;9.63;;
10144;SDS011;5113;41.822;23.564;2023-02-28T08:03:01;13.37;;;8.30;;
10144;SDS011;5113;41.822;23.564;2023-02-28T08:06:15;19.07;;;10.37;;
10144;SDS011;5113;41.822;23.564;2023-02-28T08:09:22;13.57;;;9.43;;
10144;SDS011;5113;41.822;23.564;2023-02-28T08:12:29;20.50;;;11.77;;
10144;SDS011;5113;41.822;23.564;2023-02-28T08:15:35;17.87;;;10.87;;
10144;SDS011;5113;41.822;23.564;2023-02-28T08:18:42;26.00;;;14.57;;
10144;SDS011;5113;41.822;23.564;2023-02-28T08:21:50;24.63;;;14.27;;
10144;SDS011;5113;41.822;23.564;2023-02-28T08:24:56;23.07;;;14.23;;
10144;SDS011;5113;41.822;23.564;2023-02-28T08:28:03;20.90;;;13.97;;
10144;SDS011;5113;41.822;23.564;2023-02-28T08:31:10;26.83;;;12.53;;
10144;SDS011;5113;41.822;23.564;2023-02-28T08:34:19;62.97;;;20.93;;
10144;SDS011;5113;41.822;23.564;2023-02-28T08:37:27;18.87;;;10.17;;
10144;SDS011;5113;41.822;23.564;2023-02-28T08:40:33;20.90;;;9.90;;
10144;SDS011;5113;41.822;23.564;2023-02-28T08:43:40;18.83;;;11.10;;
10144;SDS011;5113;41.822;23.564;2023-02-28T08:46:47;22.60;;;9.73;;
10144;SDS011;5113;41.822;23.564;2023-02-28T08:49:53;25.03;;;11.17;;
10144;SDS011;5113;41.822;23.564;2023-02-28T08:53:01;24.97;;;13.33;;
10144;SDS011;5113;41.822;23.564;2023-02-28T08:56:07;28.07;;;11.27;;
10144;SDS011;5113;41.822;23.564;2023-02-28T08:59:14;17.30;;;8.37;;
10144;SDS011;5113;41.822;23.564;2023-02-28T09:02:21;18.63;;;9.43;;
10144;SDS011;5113;41.822;23.564;2023-02-28T09:05:27;16.63;;;8.40;;
10144;SDS011;5113;41.822;23.564;2023-02-28T09:08:35;12.23;;;5.90;;
10144;SDS011;5113;41.822;23.564;2023-02-28T09:11:42;15.87;;;5.77;;
10144;SDS011;5113;41.822;23.564;2023-02-28T09:14:48;10.73;;;4.23;;
10144;SDS011;5113;41.822;23.564;2023-02-28T09:17:54;8.27;;;3.90;;
10144;SDS011;5113;41.822;23.564;2023-02-28T09:21:02;22.40;;;7.17;;
10144;SDS011;5113;41.822;23.564;2023-02-28T09:24:10;15.47;;;9.93;;
10144;SDS011;5113;41.822;23.564;2023-02-28T09:27:18;11.93;;;5.80;;
10144;SDS011;5113;41.822;23.564;2023-02-28T09:30:24;20.83;;;6.20;;
10144;SDS011;5113;41.822;23.564;2023-02-28T09:33:31;14.33;;;5.57;;
10144;SDS011;5113;41.822;23.564;2023-02-28T09:36:38;9.97;;;5.77;;
10144;SDS011;5113;41.822;23.564;2023-02-28T09:39:51;27.93;;;11.80;;
10144;SDS011;5113;41.822;23.564;2023-02-28T09:42:57;25.53;;;7.37;;
10144;SDS011;5113;41.822;23.564;2023-02-28T09:46:07;17.23;;;6.03;;
10144;SDS011;5113;41.822;23.564;2023-02-28T09:49:22;17.60;;;5.93;;
10144;SDS011;5113;41.822;23.564;2023-02-28T09:52:31;19.23;;;4.97;;
10144;SDS011;5113;41.822;23.564;2023-02-28T09:55:42;12.53;;;5.20;;
10144;SDS011;5113;41.822;23.564;2023-02-28T09:58:51;10.07;;;4.30;;
10144;SDS011;5113;41.822;23.564;2023-02-28T10:02:03;16.20;;;5.87;;
10144;SDS011;5113;41.822;23.564;2023-02-28T10:05:16;22.43;;;6.50;;
10144;SDS011;5113;41.822;23.564;2023-02-28T10:08:26;20.97;;;9.57;;
10144;SDS011;5113;41.822;23.564;2023-02-28T10:11:38;26.07;;;9.37;;
10144;SDS011;5113;41.822;23.564;2023-02-28T10:14:47;20.63;;;9.47;;
10144;SDS011;5113;41.822;23.564;2023-02-28T10:17:58;17.83;;;8.20;;
10144;SDS011;5113;41.822;23.564;2023-02-28T10:21:15;12.93;;;7.87;;
10144;SDS011;5113;41.822;23.564;2023-02-28T10:24:28;21.73;;;8.17;;
10144;SDS011;5113;41.822;23.564;2023-02-28T10:27:39;25.87;;;9.70;;
10144;SDS011;5113;41.822;23.564;2023-02-28T10:30:47;20.77;;;8.63;;
10144;SDS011;5113;41.822;23.564;2023-02-28T10:33:54;21.47;;;9.57;;
10144;SDS011;5113;41.822;23.564;2023-02-28T10:37:01;21.93;;;10.20;;
10144;SDS011;5113;41.822;23.564;2023-02-28T10:40:25;108.40;;;46.47;;
10144;SDS011;5113;41.822;23.564;2023-02-28T10:43:35;21.17;;;10.90;;
10144;SDS011;5113;41.822;23.564;2023-02-28T10:46:42;129.47;;;48.13;;
10144;SDS011;5113;41.822;23.564;2023-02-28T10:49:49;34.40;;;13.93;;
10144;SDS011;5113;41.822;23.564;2023-02-28T10:53:04;26.80;;;11.87;;
10144;SDS011;5113;41.822;23.564;2023-02-28T10:56:16;27.70;;;12.33;;
10144;SDS011;5113;41.822;23.564;2023-02-28T10:59:28;16.10;;;8.27;;
10144;SDS011;5113;41.822;23.564;2023-02-28T11:02:36;28.57;;;9.53;;
10144;SDS011;5113;41.822;23.564;2023-02-28T11:06:06;21.67;;;7.90;;
10144;SDS011;5113;41.822;23.564;2023-02-28T11:09:18;19.87;;;9.33;;
10144;SDS011;5113;41.822;23.564;2023-02-28T11:12:32;22.93;;;8.23;;
10144;SDS011;5113;41.822;23.564;2023-02-28T11:15:57;25.77;;;9.50;;
10144;SDS011;5113;41.822;23.564;2023-02-28T11:19:06;22.30;;;9.30;;
10144;SDS011;5113;41.822;23.564;2023-02-28T11:22:27;23.37;;;9.50;;
10144;SDS011;5113;41.822;23.564;2023-02-28T11:25:37;40.77;;;14.47;;
10144;SDS011;5113;41.822;23.564;2023-02-28T11:28:44;16.30;;;8.53;;
10144;SDS011;5113;41.822;23.564;2023-02-28T11:32:05;28.73;;;9.33;;
10144;SDS011;5113;41.822;23.564;2023-02-28T11:35:21;22.23;;;8.13;;
10144;SDS011;5113;41.822;23.564;2023-02-28T11:38:32;27.83;;;7.47;;
10144;SDS011;5113;41.822;23.564;2023-02-28T11:41:50;17.10;;;6.83;;
10144;SDS011;5113;41.822;23.564;2023-02-28T11:45:15;36.47;;;18.47;;
10144;SDS011;5113;41.822;23.564;2023-02-28T11:48:39;22.00;;;10.37;;
10144;SDS011;5113;41.822;23.564;2023-02-28T11:51:53;20.87;;;8.83;;
10144;SDS011;5113;41.822;23.564;2023-02-28T11:55:11;27.13;;;7.93;;
10144;SDS011;5113;41.822;23.564;2023-02-28T11:58:31;18.43;;;7.40;;
10144;SDS011;5113;41.822;23.564;2023-02-28T12:01:58;23.67;;;10.87;;
10144;SDS011;5113;41.822;23.564;2023-02-28T12:05:26;34.53;;;13.43;;
10144;SDS011;5113;41.822;23.564;2023-02-28T12:08:44;31.00;;;13.07;;
10144;SDS011;5113;41.822;23.564;2023-02-28T12:11:58;33.33;;;14.73;;
10144;SDS011;5113;41.822;23.564;2023-02-28T12:15:19;34.27;;;15.77;;
10144;SDS011;5113;41.822;23.564;2023-02-28T12:18:42;23.70;;;12.53;;
10144;SDS011;5113;41.822;23.564;2023-02-28T12:29:01;39.67;;;21.77;;
10144;SDS011;5113;41.822;23.564;2023-02-28T12:32:17;37.13;;;20.63;;
10144;SDS011;5113;41.822;23.564;2023-02-28T12:35:28;36.30;;;18.13;;
10144;SDS011;5113;41.822;23.564;2023-02-28T12:38:43;37.47;;;14.97;;
10144;SDS011;5113;41.822;23.564;2023-02-28T12:41:54;23.07;;;10.03;;
10144;SDS011;5113;41.822;23.564;2023-02-28T12:45:08;25.57;;;8.37;;
10144;SDS011;5113;41.822;23.564;2023-02-28T12:48:20;18.63;;;7.20;;
10144;SDS011;5113;41.822;23.564;2023-02-28T12:51:31;19.17;;;7.97;;
10144;SDS011;5113;41.822;23.564;2023-02-28T12:54:43;21.47;;;8.23;;
10144;SDS011;5113;41.822;23.564;2023-02-28T12:57:57;28.97;;;13.03;;
10144;SDS011;5113;41.822;23.564;2023-02-28T13:01:26;35.50;;;12.23;;
10144;SDS011;5113;41.822;23.564;2023-02-28T13:12:22;9.30;;;5.17;;
10144;SDS011;5113;41.822;23.564;2023-02-28T13:15:29;12.37;;;6.17;;
10144;SDS011;5113;41.822;23.564;2023-02-28T13:18:41;19.97;;;8.40;;
10144;SDS011;5113;41.822;23.564;2023-02-28T13:21:50;9.13;;;4.33;;
10144;SDS011;5113;41.822;23.564;2023-02-28T13:24:58;8.03;;;3.83;;
10144;SDS011;5113;41.822;23.564;2023-02-28T13:28:09;8.43;;;3.57;;
10144;SDS011;5113;41.822;23.564;2023-02-28T13:31:18;31.50;;;17.40;;
10144;SDS011;5113;41.822;23.564;2023-02-28T13:34:25;24.30;;;14.00;;
10144;SDS011;5113;41.822;23.564;2023-02-28T13:37:33;21.37;;;10.80;;
10144;SDS011;5113;41.822;23.564;2023-02-28T13:40:42;32.43;;;16.03;;
10144;SDS011;5113;41.822;23.564;2023-02-28T13:44:03;21.13;;;11.27;;
10144;SDS011;5113;41.822;23.564;2023-02-28T13:47:19;7.47;;;4.00;;
10144;SDS011;5113;41.822;23.564;2023-02-28T13:50:34;18.17;;;5.00;;
10144;SDS011;5113;41.822;23.564;2023-02-28T13:53:47;13.03;;;7.13;;
10144;SDS011;5113;41.822;23.564;2023-02-28T13:57:10;10.10;;;6.23;;
10144;SDS011;5113;41.822;23.564;2023-02-28T14:00:30;15.80;;;9.50;;
10144;SDS011;5113;41.822;23.564;2023-02-28T14:03:55;14.70;;;7.43;;
10144;SDS011;5113;41.822;23.564;2023-02-28T14:07:19;11.37;;;7.00;;
10144;SDS011;5113;41.822;23.564;2023-02-28T14:10:29;9.70;;;7.47;;
10144;SDS011;5113;41.822;23.564;2023-02-28T14:13:39;16.13;;;9.13;;
10144;SDS011;5113;41.822;23.564;2023-02-28T14:16:52;11.27;;;6.93;;
10144;SDS011;5113;41.822;23.564;2023-02-28T14:20:00;13.27;;;9.40;;
10144;SDS011;5113;41.822;23.564;2023-02-28T14:23:09;15.33;;;9.00;;
10144;SDS011;5113;41.822;23.564;2023-02-28T14:30:09;24.30;;;12.60;;
10144;SDS011;5113;41.822;23.564;2023-02-28T14:33:25;17.77;;;9.20;;
10144;SDS011;5113;41.822;23.564;2023-02-28T14:36:38;29.77;;;12.90;;
10144;SDS011;5113;41.822;23.564;2023-02-28T14:39:47;28.00;;;13.67;;
10144;SDS011;5113;41.822;23.564;2023-02-28T14:42:59;46.80;;;20.17;;
10144;SDS011;5113;41.822;23.564;2023-02-28T14:46:06;43.50;;;23.90;;
10144;SDS011;5113;41.822;23.564;2023-02-28T14:49:15;39.80;;;20.63;;
10144;SDS011;5113;41.822;23.564;2023-02-28T14:52:26;34.00;;;18.70;;
10144;SDS011;5113;41.822;23.564;2023-02-28T14:55:34;26.17;;;12.83;;
10144;SDS011;5113;41.822;23.564;2023-02-28T14:58:41;20.40;;;11.87;;
10144;SDS011;5113;41.822;23.564;2023-02-28T15:02:16;20.37;;;10.67;;
10144;SDS011;5113;41.822;23.564;2023-02-28T15:05:27;15.47;;;9.30;;
10144;SDS011;5113;41.822;23.564;2023-02-28T15:08:35;12.53;;;8.27;;
10144;SDS011;5113;41.822;23.564;2023-02-28T15:11:41;17.73;;;7.67;;
10144;SDS011;5113;41.822;23.564;2023-02-28T15:14:51;9.77;;;6.33;;
10144;SDS011;5113;41.822;23.564;2023-02-28T15:17:58;12.60;;;6.40;;
10144;SDS011;5113;41.822;23.564;2023-02-28T15:21:11;9.60;;;5.87;;
10144;SDS011;5113;41.822;23.564;2023-02-28T15:24:22;5.63;;;4.50;;
10144;SDS011;5113;41.822;23.564;2023-02-28T15:27:37;13.93;;;8.10;;
10144;SDS011;5113;41.822;23.564;2023-02-28T15:30:55;22.17;;;12.90;;
10144;SDS011;5113;41.822;23.564;2023-02-28T15:34:04;28.03;;;13.03;;
10144;SDS011;5113;41.822;23.564;2023-02-28T15:37:26;40.33;;;21.80;;
10144;SDS011;5113;41.822;23.564;2023-02-28T15:40:43;25.53;;;12.43;;
10144;SDS011;5113;41.822;23.564;2023-02-28T15:44:14;21.50;;;7.83;;
10144;SDS011;5113;41.822;23.564;2023-02-28T15:47:23;16.27;;;6.63;;
10144;SDS011;5113;41.822;23.564;2023-02-28T15:50:31;18.63;;;6.93;;
10144;SDS011;5113;41.822;23.564;2023-02-28T15:53:43;12.17;;;6.83;;
10144;SDS011;5113;41.822;23.564;2023-02-28T15:56:53;10.87;;;6.80;;
10144;SDS011;5113;41.822;23.564;2023-02-28T16:00:02;8.27;;;7.03;;
10144;SDS011;5113;41.822;23.564;2023-02-28T16:03:22;14.40;;;8.17;;
10144;SDS011;5113;41.822;23.564;2023-02-28T16:06:33;7.47;;;5.83;;
10144;SDS011;5113;41.822;23.564;2023-02-28T16:09:42;5.97;;;4.40;;
10144;SDS011;5113;41.822;23.564;2023-02-28T16:12:49;8.27;;;5.57;;
10144;SDS011;5113;41.822;23.564;2023-02-28T16:15:55;11.33;;;6.57;;
10144;SDS011;5113;41.822;23.564;2023-02-28T16:19:01;7.50;;;5.30;;
10144;SDS011;5113;41.822;23.564;2023-02-28T16:22:07;6.87;;;5.73;;
10144;SDS011;5113;41.822;23.564;2023-02-28T16:25:16;9.20;;;6.73;;
10144;SDS011;5113;41.822;23.564;2023-02-28T16:28:25;13.87;;;9.43;;
10144;SDS011;5113;41.822;23.564;2023-02-28T16:31:37;15.17;;;10.63;;
10144;SDS011;5113;41.822;23.564;2023-02-28T16:34:43;9.83;;;7.57;;
10144;SDS011;5113;41.822;23.564;2023-02-28T16:37:50;9.27;;;7.13;;
10144;SDS011;5113;41.822;23.564;2023-02-28T16:40:58;13.47;;;9.80;;
10144;SDS011;5113;41.822;23.564;2023-02-28T16:44:06;9.97;;;8.73;;
10144;SDS011;5113;41.822;23.564;2023-02-28T16:47:18;12.60;;;8.40;;
10144;SDS011;5113;41.822;23.564;2023-02-28T16:50:25;8.40;;;7.30;;
10144;SDS011;5113;41.822;23.564;2023-02-28T16:53:33;13.57;;;8.40;;
10144;SDS011;5113;41.822;23.564;2023-02-28T16:56:41;10.30;;;7.90;;
10144;SDS011;5113;41.822;23.564;2023-02-28T16:59:50;15.60;;;11.57;;
10144;SDS011;5113;41.822;23.564;2023-02-28T17:02:56;14.27;;;11.60;;
10144;SDS011;5113;41.822;23.564;2023-02-28T17:06:04;11.87;;;9.27;;
10144;SDS011;5113;41.822;23.564;2023-02-28T17:09:14;10.80;;;9.70;;
10144;SDS011;5113;41.822;23.564;2023-02-28T17:12:25;18.60;;;11.77;;
10144;SDS011;5113;41.822;23.564;2023-02-28T17:15:31;36.27;;;20.70;;
10144;SDS011;5113;41.822;23.564;2023-02-28T17:18:37;44.40;;;22.73;;
10144;SDS011;5113;41.822;23.564;2023-02-28T17:21:43;22.10;;;13.20;;
10144;SDS011;5113;41.822;23.564;2023-02-28T17:24:50;24.17;;;14.60;;
10144;SDS011;5113;41.822;23.564;2023-02-28T17:27:57;34.33;;;16.37;;
10144;SDS011;5113;41.822;23.564;2023-02-28T17:31:03;29.17;;;16.07;;
10144;SDS011;5113;41.822;23.564;2023-02-28T17:34:10;42.53;;;20.73;;
10144;SDS011;5113;41.822;23.564;2023-02-28T17:37:22;44.13;;;23.63;;
10144;SDS011;5113;41.822;23.564;2023-02-28T17:40:28;41.27;;;23.17;;
10144;SDS011;5113;41.822;23.564;2023-02-28T17:43:36;33.97;;;20.80;;
10144;SDS011;5113;41.822;23.564;2023-02-28T17:46:42;38.63;;;23.10;;
10144;SDS011;5113;41.822;23.564;2023-02-28T17:49:49;46.97;;;26.07;;
10144;SDS011;5113;41.822;23.564;2023-02-28T17:52:55;42.90;;;25.90;;
10144;SDS011;5113;41.822;23.564;2023-02-28T17:56:01;44.13;;;23.53;;
10144;SDS011;5113;41.822;23.564;2023-02-28T17:59:10;33.97;;;18.67;;
10144;SDS011;5113;41.822;23.564;2023-02-28T18:02:17;34.50;;;17.10;;
10144;SDS011;5113;41.822;23.564;2023-02-28T18:05:24;32.00;;;20.17;;
10144;SDS011;5113;41.822;23.564;2023-02-28T18:08:30;37.37;;;19.97;;
10144;SDS011;5113;41.822;23.564;2023-02-28T18:11:39;42.37;;;20.63;;
10144;SDS011;5113;41.822;23.564;2023-02-28T18:14:53;34.23;;;18.83;;
10144;SDS011;5113;41.822;23.564;2023-02-28T18:18:00;30.90;;;16.70;;
10144;SDS011;5113;41.822;23.564;2023-02-28T18:21:07;34.70;;;18.10;;
10144;SDS011;5113;41.822;23.564;2023-02-28T18:24:14;33.30;;;18.90;;
10144;SDS011;5113;41.822;23.564;2023-02-28T18:27:20;26.67;;;14.77;;
10144;SDS011;5113;41.822;23.564;2023-02-28T18:30:29;22.97;;;14.23;;
10144;SDS011;5113;41.822;23.564;2023-02-28T18:33:36;20.63;;;12.23;;
10144;SDS011;5113;41.822;23.564;2023-02-28T18:36:43;17.87;;;12.47;;
10144;SDS011;5113;41.822;23.564;2023-02-28T18:39:50;14.90;;;12.40;;
10144;SDS011;5113;41.822;23.564;2023-02-28T18:42:57;12.97;;;10.90;;
10144;SDS011;5113;41.822;23.564;2023-02-28T18:46:06;8.57;;;7.30;;
10144;SDS011;5113;41.822;23.564;2023-02-28T18:49:14;10.83;;;7.37;;
10144;SDS011;5113;41.822;23.564;2023-02-28T18:52:20;21.03;;;7.70;;
10144;SDS011;5113;41.822;23.564;2023-02-28T18:55:26;10.77;;;6.53;;
10144;SDS011;5113;41.822;23.564;2023-02-28T18:58:32;18.13;;;9.23;;
10144;SDS011;5113;41.822;23.564;2023-02-28T19:01:41;14.50;;;9.70;;
10144;SDS011;5113;41.822;23.564;2023-02-28T19:04:50;32.33;;;18.20;;
10144;SDS011;5113;41.822;23.564;2023-02-28T19:07:56;32.83;;;18.00;;
10144;SDS011;5113;41.822;23.564;2023-02-28T19:11:05;22.07;;;14.67;;